Latest Weather Observations for Gold Coast Seaway

IDQ60801

Issued at 12:05 pm EST Thursday 2 October 2014 (issued every 30 minutes, with the page automatically refreshed every 10 minutes)

About weather observations | Map of weather stations | Latest weather observations for QLD | Other Formats
Station Details ID: 040764 Name: GOLD COAST SEAWAY Lat: -27.94 Lon: 153.43 Height: 2.98 m
Data from the previous 72 hours. | See also: Recent months at Gold Coast Seaway
Date/Time
EST
Temp
°C
App
Temp
°C
Dew
Point
Rel
Hum
%
Delta-T
°C
Wind Press
QNH
hPa
Press
MSL
hPa
Rain
since 9 am
mm
Dir
 
Spd
km/h
Gust
km/h
Spd
kts
Gust
kts
02/12:00pm 22.5 18.9 11.9 51 5.9 SE 22 28 12 15 1021.5 1021.5 0.0
02/11:30am 22.1 18.0 11.5 51 5.9 SE 24 28 13 15 1021.9 1021.9 0.0
02/11:00am 22.2 18.9 11.6 51 5.9 SE 20 26 11 14 1022.2 1022.2 0.0
02/10:30am 23.3 20.0 11.7 48 6.5 SE 20 26 11 14 1022.3 1022.3 0.0
02/10:00am 22.7 19.1 12.0 50 6.0 SSE 22 28 12 15 1022.4 1022.4 0.0
02/09:30am 20.8 17.4 11.2 54 5.3 SSE 20 26 11 14 1022.5 1022.5 0.0
02/09:00am 20.2 16.8 10.6 54 5.2 S 19 26 10 14 1022.4 1022.4 0.0
02/08:30am 20.7 15.7 11.1 54 5.3 SE 28 32 15 17 1022.3 1022.3 0.0
02/08:00am 19.9 15.6 12.2 61 4.3 SE 26 32 14 17 1022.2 1022.2 0.0
02/07:30am 18.6 15.5 11.7 64 3.8 S 19 28 10 15 1022.0 1022.0 0.0
02/07:00am 18.2 14.7 10.8 62 4.0 S 20 28 11 15 1021.8 1021.8 0.0
02/06:30am 18.1 13.6 10.2 60 4.2 S 24 30 13 16 1021.5 1021.5 0.0
02/06:00am 17.6 12.5 10.5 63 3.8 S 28 33 15 18 1021.2 1021.2 0.0
02/05:30am 17.5 12.4 10.6 64 3.7 S 28 33 15 18 1020.8 1020.8 0.0
02/05:00am 17.5 11.6 10.4 63 3.8 S 32 41 17 22 1020.4 1020.4 0.0
02/04:30am 17.5 11.4 9.9 61 4.0 S 32 37 17 20 1020.1 1020.1 0.0
02/04:00am 17.7 11.7 10.1 61 4.0 S 32 35 17 19 1019.9 1019.9 0.0
02/03:30am 18.0 11.8 9.9 59 4.3 S 33 41 18 22 1019.8 1019.8 0.0
02/03:00am 18.3 11.4 10.2 59 4.3 S 37 50 20 27 1019.7 1019.7 0.0
02/02:30am 18.5 11.6 10.3 59 4.4 S 37 44 20 24 1019.7 1019.7 0.0
02/02:00am 18.8 11.8 10.1 57 4.6 S 37 46 20 25 1019.8 1019.8 0.0
02/01:30am 19.0 11.9 10.8 59 4.4 S 39 48 21 26 1019.9 1019.9 0.0
02/01:00am 19.1 12.3 11.9 63 4.0 SSE 39 52 21 28 1019.9 1019.9 0.0
02/12:30am 18.8 11.8 11.4 62 4.0 S 39 52 21 28 1020.1 1020.1 0.0
02/12:00am 18.9 10.6 11.5 62 4.0 S 46 54 25 29 1020.2 1020.2 0.0
 
Date/Time
EST
Temp
°C
App
Temp
°C
Dew
Point
Rel
Hum
%
Delta-T
°C
Wind Press
QNH
hPa
Press
MSL
hPa
Rain
since 9 am
mm
Dir
 
Spd
km/h
Gust
km/h
Spd
kts
Gust
kts
01/11:30pm 19.0 10.5 12.0 64 3.9 S 48 57 26 31 1020.1 1020.1 0.0
01/11:00pm 19.1 10.3 12.1 64 3.9 S 50 59 27 32 1020.0 1020.0 0.0
01/10:30pm 19.2 10.5 12.7 66 3.6 S 50 57 27 31 1019.8 1019.8 0.0
01/10:00pm 19.3 10.4 13.0 67 3.5 S 52 65 28 35 1019.5 1019.5 0.0
01/09:30pm 19.6 10.8 13.5 68 3.5 S 52 63 28 34 1019.5 1019.5 0.0
01/09:00pm 19.8 12.3 14.0 69 3.3 S 46 57 25 31 1019.1 1019.1 0.0
01/08:30pm 19.9 11.5 13.4 66 3.7 S 50 63 27 34 1018.6 1018.6 0.0
01/08:00pm 20.2 11.5 14.8 71 3.2 S 54 65 29 35 1018.1 1018.1 0.0
01/07:30pm 20.5 13.0 15.9 75 2.7 S 50 63 27 34 1017.6 1017.6 0.0
01/07:00pm 20.5 12.1 15.7 74 2.9 S 54 69 29 37 1016.9 1016.9 0.0
01/06:38pm 20.6 11.8 16.2 76 2.6 S 57 76 31 41 1016.1 1016.1 0.0
01/06:30pm 20.7 11.6 16.3 76 2.6 S 59 76 32 41 1015.9 1015.9 0.0
01/06:00pm 21.1 12.7 16.7 76 2.7 S 56 76 30 41 1015.4 1015.4 0.0
01/05:37pm 21.4 14.3 17.0 76 2.7 SSE 50 69 27 37 1014.9 1014.9 0.0
01/05:30pm 21.6 13.8 17.2 76 2.7 SSE 54 63 29 34 1014.7 1014.7 0.0
01/05:14pm 22.4 14.3 17.3 73 3.1 SSE 56 70 30 38 1014.1 1014.1 0.0
01/05:10pm 23.2 19.7 17.4 70 3.6 S 32 52 17 28 1013.9 1013.9 0.0
01/05:05pm 24.1 21.4 17.6 67 4.0 S 28 37 15 20 1013.6 1013.6 0.0
01/05:00pm 24.8 25.4 17.8 65 4.4 SSW 11 15 6 8 1013.3 1013.3 0.0
01/04:51pm 23.9 20.8 17.6 68 3.9 S 30 61 16 33 1012.9 1012.9 0.0
01/04:30pm 22.7 20.3 18.3 76 2.8 N 28 32 15 17 1011.5 1011.5 0.0
01/04:00pm 23.2 20.4 18.3 74 3.1 NNE 30 33 16 18 1011.3 1011.3 0.0
01/03:30pm 23.3 20.8 18.0 72 3.3 N 28 33 15 18 1011.2 1011.2 0.0
01/03:00pm 24.0 21.1 18.0 69 3.8 NNE 30 33 16 18 1011.3 1011.3 0.0
01/02:30pm 24.5 21.2 18.0 67 4.1 NNE 32 35 17 19 1011.5 1011.5 0.0
01/02:00pm 25.0 22.1 18.0 65 4.4 NNE 30 32 16 17 1011.9 1011.9 0.0
01/01:30pm 25.6 22.6 16.7 58 5.5 N 28 33 15 18 1012.3 1012.3 0.0
01/01:00pm 26.6 22.8 16.8 55 6.1 N 32 39 17 21 1012.6 1012.6 0.0
01/12:30pm 25.4 21.9 16.5 58 5.5 N 30 35 16 19 1013.1 1013.1 0.0
01/12:00pm 25.7 22.4 16.0 55 5.9 NNE 28 37 15 20 1013.5 1013.5 0.0
01/11:30am 28.7 25.7 13.8 40 8.9 NW 22 32 12 17 1014.1 1014.1 0.0
01/11:00am 27.4 24.8 13.7 43 8.1 NNW 20 30 11 16 1014.7 1014.7 0.0
01/10:30am 26.3 23.2 13.4 45 7.6 NNW 22 30 12 16 1015.1 1015.1 0.0
01/10:00am 25.5 22.4 13.4 47 7.1 NNW 22 30 12 16 1015.5 1015.5 0.0
01/09:30am 24.5 21.1 13.7 51 6.3 NNW 24 32 13 17 1016.1 1016.1 0.0
01/09:00am 23.2 20.6 13.1 53 5.8 NNW 19 28 10 15 1016.5 1016.5 0.0
01/08:30am 22.3 17.7 13.6 58 5.0 NNW 30 35 16 19 1016.6 1016.6 0.0
01/08:00am 21.4 17.4 14.1 63 4.2 NNW 28 35 15 19 1016.6 1016.6 0.0
01/07:30am 20.4 18.0 14.5 69 3.4 NNW 20 30 11 16 1016.6 1016.6 0.0
01/07:00am 19.6 16.1 14.4 72 3.0 NNW 26 33 14 18 1016.6 1016.6 0.0
01/06:30am 18.6 16.7 14.1 75 2.6 N 17 26 9 14 1016.4 1016.4 0.0
01/06:00am 17.7 15.4 14.2 80 2.0 NNW 19 26 10 14 1016.2 1016.2 0.0
01/05:30am 17.8 15.1 14.7 82 1.8 NNW 22 28 12 15 1016.2 1016.2 0.0
01/05:00am 17.6 16.6 15.6 88 1.2 NNW 15 20 8 11 1015.9 1015.9 0.0
01/04:30am 17.7 16.3 15.5 87 1.3 NNW 17 22 9 12 1015.8 1015.8 0.0
01/04:00am 18.0 15.8 16.0 88 1.2 NW 22 26 12 14 1015.5 1015.5 0.0
01/03:30am 18.5 16.9 15.9 85 1.5 NNW 19 26 10 14 1015.6 1015.6 0.0
01/03:00am 18.3 17.1 16.1 87 1.3 NNW 17 20 9 11 1015.5 1015.5 0.0
01/02:30am 18.4 18.2 16.6 89 1.1 NNW 13 17 7 9 1015.8 1015.8 0.0
01/02:00am 18.9 18.6 16.5 86 1.4 NNW 13 17 7 9 1016.2 1016.2 0.0
01/01:30am 18.8 18.6 16.8 88 1.2 NNW 13 17 7 9 1016.4 1016.4 0.0
01/01:00am 18.9 18.9 17.2 90 1.0 NNW 13 17 7 9 1016.8 1016.8 0.0
01/12:30am 18.9 19.2 17.0 89 1.1 NNW 11 13 6 7 1017.2 1017.2 0.0
01/12:00am 18.5 18.8 17.0 91 0.9 NNW 11 13 6 7 1017.5 1017.5 0.0
 
Date/Time
EST
Temp
°C
App
Temp
°C
Dew
Point
Rel
Hum
%
Delta-T
°C
Wind Press
QNH
hPa
Press
MSL
hPa
Rain
since 9 am
mm
Dir
 
Spd
km/h
Gust
km/h
Spd
kts
Gust
kts
30/11:30pm 17.5 17.3 14.8 84 1.6 NW 9 9 5 5 1017.9 1017.9 0.0
30/11:00pm 18.3 18.4 15.6 84 1.6 WNW 9 9 5 5 1018.1 1018.1 0.0
30/10:30pm 19.1 19.4 16.0 82 1.8 NNW 9 11 5 6 1018.1 1018.1 0.0
30/10:00pm 19.2 18.6 15.7 80 2.1 N 13 15 7 8 1018.1 1018.1 0.0
30/09:30pm 19.5 19.0 15.8 79 2.2 N 13 17 7 9 1018.3 1018.3 0.0
30/09:00pm 19.6 19.5 15.9 79 2.2 NNW 11 15 6 8 1018.6 1018.6 0.0
30/08:30pm 19.5 19.0 15.8 79 2.2 N 13 17 7 9 1018.5 1018.5 0.0
30/08:00pm 19.7 18.8 14.9 74 2.8 N 13 17 7 9 1018.3 1018.3 0.0
30/07:30pm 20.1 18.4 14.7 71 3.2 N 17 20 9 11 1018.1 1018.1 0.0
30/07:00pm 20.1 19.2 14.9 72 3.0 N 13 19 7 10 1017.8 1017.8 0.0
30/06:30pm 20.8 17.8 16.8 78 2.4 N 28 33 15 18 1017.6 1017.6 0.0
30/06:00pm 20.9 17.1 17.1 79 2.3 N 33 39 18 21 1017.2 1017.2 0.0
30/05:30pm 21.1 17.2 16.9 77 2.6 N 33 39 18 21 1016.9 1016.9 0.0
30/05:00pm 21.4 17.4 16.6 74 2.9 N 33 41 18 22 1016.8 1016.8 0.0
30/04:30pm 21.9 17.9 16.6 72 3.2 N 33 39 18 21 1016.7 1016.7 0.0
30/04:00pm 22.1 18.1 16.6 71 3.3 N 33 44 18 24 1016.7 1016.7 0.0
30/03:30pm 22.4 17.8 16.0 67 3.9 NNE 35 43 19 23 1016.7 1016.7 0.0
30/03:00pm 22.9 17.9 16.2 66 4.1 NNE 37 44 20 24 1016.8 1016.8 0.0
30/02:30pm 23.0 17.3 15.3 62 4.6 NNE 39 44 21 24 1016.8 1016.8 0.0
30/02:00pm 23.4 17.8 15.5 61 4.7 NNE 39 44 21 24 1017.1 1017.1 0.0
30/01:30pm 23.9 19.2 15.9 61 4.8 NNE 35 43 19 23 1017.3 1017.3 0.0
30/01:00pm 24.5 20.6 16.5 61 4.9 NNE 32 37 17 20 1017.7 1017.7 0.0
30/12:30pm 24.9 19.4 11.8 44 7.4 NNE 32 39 17 21 1018.1 1018.1 0.0
30/12:00pm 24.6 19.1 11.9 45 7.2 NNE 32 37 17 20 1018.6 1018.6 0.0
30/11:30am 24.7 19.3 12.3 46 7.1 N 32 37 17 20 1018.9 1018.9 0.0
30/11:00am 25.0 21.1 10.8 41 7.9 N 22 28 12 15 1019.4 1019.4 0.0
30/10:30am 24.7 21.9 12.6 47 7.0 N 19 26 10 14 1019.9 1019.9 0.0
30/10:00am 23.9 20.9 11.9 47 6.8 N 19 26 10 14 1020.2 1020.2 0.0
30/09:30am 23.3 20.3 12.0 49 6.4 N 19 26 10 14 1020.5 1020.5 0.0
30/09:00am 22.0 19.2 12.5 54 5.4 NNW 19 28 10 15 1020.7 1020.7 0.0
30/08:30am 21.3 18.9 12.7 58 4.9 NNW 17 24 9 13 1020.7 1020.7 0.0
30/08:00am 20.5 17.7 12.7 61 4.4 N 19 26 10 14 1020.6 1020.6 0.0
30/07:30am 19.5 17.7 13.2 67 3.6 NNW 15 19 8 10 1020.5 1020.5 0.0
30/07:00am 18.4 17.2 13.9 75 2.6 NNW 13 17 7 9 1020.3 1020.3 0.0
30/06:30am 17.1 15.4 13.6 80 2.0 NNW 15 19 8 10 1020.1 1020.1 0.0
30/06:00am 16.6 14.9 13.7 83 1.6 NNW 15 19 8 10 1019.9 1019.9 0.0
30/05:30am 16.4 15.2 13.9 85 1.4 NW 13 13 7 7 1019.6 1019.6 0.0
30/05:00am 16.4 15.6 14.1 86 1.3 NNW 11 13 6 7 1019.2 1019.2 0.0
30/04:30am 16.6 15.4 14.1 85 1.4 NW 13 15 7 8 1019.0 1019.0 0.0
30/04:00am 16.9 15.4 14.2 84 1.5 NW 15 15 8 8 1018.7 1018.7 0.0
30/03:30am 17.2 16.1 14.3 83 1.7 NNW 13 15 7 8 1018.6 1018.6 0.0
30/03:00am 17.1 15.5 14.0 82 1.8 NNW 15 17 8 9 1018.7 1018.7 0.0
30/02:30am 17.3 16.2 14.2 82 1.8 NNW 13 15 7 8 1018.8 1018.8 0.0
30/02:00am 17.2 15.7 14.1 82 1.8 NNW 15 17 8 9 1018.9 1018.9 0.0
30/01:30am 16.5 15.8 14.3 87 1.3 NW 11 11 6 6 1019.1 1019.1 0.0
30/01:00am 15.6 15.3 13.4 87 1.2 NW 7 11 4 6 1019.2 1019.2 0.0
30/12:30am 16.0 15.8 13.5 85 1.4 NW 7 9 4 5 1019.4 1019.4 0.0
30/12:00am 16.0 15.8 13.5 85 1.4 WNW 7 9 4 5 1019.6 1019.6 0.0
 
Date/Time
EST
Temp
°C
App
Temp
°C
Dew
Point
Rel
Hum
%
Delta-T
°C
Wind Press
QNH
hPa
Press
MSL
hPa
Rain
since 9 am
mm
Dir
 
Spd
km/h
Gust
km/h
Spd
kts
Gust
kts
29/11:30pm 16.1 15.7 13.0 82 1.7 NW 7 9 4 5 1019.7 1019.7 0.0
29/11:00pm 16.9 16.3 13.4 80 2.0 WNW 9 9 5 5 1019.8 1019.8 0.0
29/10:30pm 17.3 16.6 13.2 77 2.3 NW 9 11 5 6 1019.8 1019.8 0.0
29/10:00pm 18.1 17.2 13.6 75 2.5 NNW 11 11 6 6 1019.9 1019.9 0.0
29/09:30pm 18.4 17.5 13.7 74 2.7 NNW 11 13 6 7 1019.9 1019.9 0.0
29/09:00pm 18.7 17.8 13.8 73 2.8 NW 11 13 6 7 1019.8 1019.8 0.0
29/08:30pm 19.0 17.6 13.4 70 3.2 NNW 13 17 7 9 1019.5 1019.5 0.0
29/08:00pm 19.3 17.0 13.0 67 3.5 NNW 17 20 9 11 1019.2 1019.2 0.0
29/07:30pm 19.1 17.3 13.3 69 3.3 NNW 15 19 8 10 1018.9 1018.9 0.0
29/07:00pm 19.3 16.9 12.6 65 3.7 N 17 22 9 12 1018.7 1018.7 0.0
29/06:30pm 20.0 17.4 13.7 67 3.6 N 20 33 11 18 1018.7 1018.7 0.0
29/06:00pm 20.3 15.6 14.4 69 3.4 N 32 35 17 19 1018.3 1018.3 0.0
29/05:30pm 20.6 16.0 14.7 69 3.5 NNE 32 35 17 19 1018.0 1018.0 0.0
29/05:00pm 21.0 16.8 14.6 67 3.7 NNE 30 35 16 19 1017.7 1017.7 0.0
29/04:30pm 21.4 16.8 14.6 65 4.0 N 32 39 17 21 1017.3 1017.3 0.0
29/04:00pm 21.8 17.0 14.7 64 4.2 NNE 33 37 18 20 1017.2 1017.2 0.0
29/03:30pm 22.3 17.7 14.7 62 4.5 NNE 32 37 17 20 1017.2 1017.2 0.0
29/03:00pm 22.6 17.9 14.2 59 4.9 NNE 32 37 17 20 1017.1 1017.1 0.0
29/02:30pm 23.0 18.0 14.0 57 5.3 NNE 33 37 18 20 1017.3 1017.3 0.0
29/02:00pm 23.3 18.7 15.1 60 4.9 NNE 33 37 18 20 1017.4 1017.4 0.0
29/01:30pm 23.2 18.9 14.5 58 5.1 NNE 30 35 16 19 1017.9 1017.9 0.0
29/01:00pm 23.4 18.9 13.8 54 5.6 NNE 30 33 16 18 1018.1 1018.1 0.0
29/12:30pm 23.4 19.2 13.6 54 5.7 NNE 28 32 15 17 1018.5 1018.5 0.0

Other Formats:

Comma delimited format used in spreadsheet applications
http://www.bom.gov.au/fwo/IDQ60801/IDQ60801.94580.axf

JavaScript Object Notation format (JSON) in row-major order
http://www.bom.gov.au/fwo/IDQ60801/IDQ60801.94580.json